KSLC

Salt Lake City International

Airport
ICAO code
KSLC
Summary
ICAO Region
NAM
ICAO Territory
Location

Salt Lake City, Utah,

Coordinates
40° 47' 8" N , 111° 58' 50" W
KCC
Airport LOS
Parallel Runway Operation
Airport RE
Hot and High Operations
Airport WX
Lake Effect Snow
Metar
Observation
KSLC 031954Z 32007KT 10SM FEW075 23/03 A3016 RMK AO2 SLP175 T02330033
Station
Salt Lake City, Salt Lake City International Airport
Date/Time
2022-10-03 19:54:00
Wind direction
320°
Wind speed
07 kts
Lowest cloud amount
few clouds
Temperature
23.3°C
Dew point
3.3°C
Humidity
27%
Weather condition
n/a

Description

Salt Lake City International Airport is a major public airport in Utah. A joint civil-military facility, it is located in western Salt Lake City.

Climatology

Dry-summer continental climate (Köppen climate classification Dsa) a relatively rare form of the continental climate where a region experiences dry summers and wet winters. There are four distinct seasons. Both summer and winter are long, with hot, dry summers and cold, snowy winters separated by brief spring and fall transition periods. Spring is the wettest season, while summer is usually the driest. Large seasonal temperature variation

Runways

Designator Length Width Surface Rops
14/32 1491 46 ASP Yes/Yes
17/35 2925 46 ASP Yes/Yes
16R/34L 3658 46 CON Yes/Yes
16L/34R 3659 46 ASP Yes/Yes

Airport map

Aerial View

SKYbrary Partners:

Safety knowledge contributed by: